Time;durP1;ratioP1;P1;durP2;ratioP2;P2;SDS_P1;SDS_P2;PMS_P1;PMS_P2;Temp;Humidity;BMP_temperature;BMP_pressure;BME280_temperature;BME280_humidity;BME280_pressure;Samples;Min_cycle;Max_cycle;Signal;HPM_P1;HPM_P2
2021/11/04 00:00:14;;;;;;;2.50;1.55;;;;;;;;;;4977663;28;20022;-91
2021/11/04 00:02:41;;;;;;;2.08;1.40;;;;;;;;;;4975841;28;20033;-91
2021/11/04 00:05:08;;;;;;;2.15;1.73;;;;;;;;;;4989310;28;20034;-93
2021/11/04 00:07:35;;;;;;;2.72;1.60;;;;;;;;;;4995154;28;20193;-94
2021/11/04 00:10:03;;;;;;;3.45;1.60;;;;;;;;;;5004099;28;20034;-94
2021/11/04 00:12:30;;;;;;;4.35;1.60;;;;;;;;;;5015647;28;20014;-88
2021/11/04 00:14:56;;;;;;;3.25;1.60;;;;;;;;;;5002450;28;20018;-93
2021/11/04 00:17:23;;;;;;;1.90;1.38;;;;;;;;;;4997008;28;20053;-93
2021/11/04 00:19:49;;;;;;;4.00;1.63;;;;;;;;;;4999335;28;20042;-90
2021/11/04 00:22:16;;;;;;;3.40;1.70;;;;;;;;;;4999072;28;20036;-91
2021/11/04 00:24:42;;;;;;;2.72;1.73;;;;;;;;;;4986131;28;20038;-94
2021/11/04 00:27:09;;;;;;;3.33;1.70;;;;;;;;;;4985817;28;20034;-93
2021/11/04 00:29:35;;;;;;;2.50;1.50;;;;;;;;;;4988430;28;20030;-92
2021/11/04 00:32:02;;;;;;;3.20;1.30;;;;;;;;;;5004087;28;20040;-94
2021/11/04 00:34:29;;;;;;;2.72;1.48;;;;;;;;;;5001398;28;20062;-94
2021/11/04 00:36:56;;;;;;;2.30;1.40;;;;;;;;;;4993720;28;20508;-92
2021/11/04 00:39:23;;;;;;;2.63;1.73;;;;;;;;;;4982649;28;20187;-92
2021/11/04 00:41:50;;;;;;;2.15;1.48;;;;;;;;;;4980314;28;20026;-93
2021/11/04 00:44:18;;;;;;;2.63;1.50;;;;;;;;;;4980576;28;20050;-93
2021/11/04 00:46:44;;;;;;;2.00;1.52;;;;;;;;;;4982191;28;20095;-92
2021/11/04 00:49:11;;;;;;;2.50;1.58;;;;;;;;;;4980294;28;20026;-91
2021/11/04 00:51:38;;;;;;;2.63;1.60;;;;;;;;;;4970346;28;20100;-91
2021/11/04 00:54:04;;;;;;;2.30;1.48;;;;;;;;;;4980467;28;20046;-91
2021/11/04 00:56:30;;;;;;;3.05;1.42;;;;;;;;;;4994723;28;20061;-90
2021/11/04 00:58:57;;;;;;;2.85;1.60;;;;;;;;;;4994629;28;20497;-89
2021/11/04 01:01:24;;;;;;;2.28;1.40;;;;;;;;;;4992050;28;20045;-93
2021/11/04 01:03:52;;;;;;;2.13;1.48;;;;;;;;;;4975265;28;20062;-92
2021/11/04 01:06:20;;;;;;;2.95;1.50;;;;;;;;;;4979875;28;20551;-92
2021/11/04 01:08:47;;;;;;;2.78;1.70;;;;;;;;;;4976614;28;20088;-93
2021/11/04 01:11:15;;;;;;;3.63;1.60;;;;;;;;;;4982159;28;20030;-94
2021/11/04 01:13:42;;;;;;;2.55;1.48;;;;;;;;;;4990245;28;20064;-92
2021/11/04 01:16:08;;;;;;;3.67;1.55;;;;;;;;;;4995159;28;20076;-91
2021/11/04 01:18:35;;;;;;;2.78;1.70;;;;;;;;;;4995686;28;20061;-93
2021/11/04 01:21:01;;;;;;;2.60;1.88;;;;;;;;;;4977327;28;20045;-91
2021/11/04 01:23:28;;;;;;;2.90;1.65;;;;;;;;;;4990683;28;20032;-90
2021/11/04 01:25:54;;;;;;;2.70;1.70;;;;;;;;;;4978610;28;20030;-91
2021/11/04 01:28:21;;;;;;;3.25;1.50;;;;;;;;;;4978654;28;20112;-90
2021/11/04 01:30:47;;;;;;;2.28;1.50;;;;;;;;;;4993228;28;20030;-89
2021/11/04 01:33:14;;;;;;;2.97;1.50;;;;;;;;;;4977839;28;20190;-91
2021/11/04 01:35:41;;;;;;;2.75;1.60;;;;;;;;;;4972783;28;20046;-91
2021/11/04 01:38:08;;;;;;;2.20;1.60;;;;;;;;;;4979225;28;20034;-91
2021/11/04 01:40:35;;;;;;;2.42;1.52;;;;;;;;;;4970741;28;20457;-91
2021/11/04 01:43:02;;;;;;;2.47;1.70;;;;;;;;;;4979332;28;20080;-92
2021/11/04 01:45:29;;;;;;;2.80;1.83;;;;;;;;;;4989841;28;20100;-91
2021/11/04 01:47:56;;;;;;;3.17;1.60;;;;;;;;;;4977640;28;20022;-85
2021/11/04 01:50:24;;;;;;;2.60;1.70;;;;;;;;;;4981353;28;20030;-88
2021/11/04 01:52:51;;;;;;;3.38;1.48;;;;;;;;;;4966794;28;20961;-94
2021/11/04 01:55:22;;;;;;;2.72;1.80;;;;;;;;;;4979320;28;20030;-92
2021/11/04 01:57:48;;;;;;;2.20;1.40;;;;;;;;;;4968932;28;20030;-92
2021/11/04 02:00:17;;;;;;;3.22;1.80;;;;;;;;;;4975159;28;20069;-91
2021/11/04 02:02:48;;;;;;;3.22;1.70;;;;;;;;;;4977003;28;20038;-91
2021/11/04 02:05:15;;;;;;;;;;;;;;;;;;5004590;28;20037;-92
2021/11/04 02:07:41;;;;;;;3.22;1.88;;;;;;;;;;4973429;28;19910;-89
2021/11/04 02:10:13;;;;;;;2.50;1.77;;;;;;;;;;4974412;28;20582;-88
2021/11/04 02:12:54;;;;;;;2.60;1.73;;;;;;;;;;4972836;28;20097;-88
2021/11/04 02:15:21;;;;;;;2.70;1.50;;;;;;;;;;4969928;28;20088;-88
2021/11/04 02:17:49;;;;;;;2.88;1.70;;;;;;;;;;4967565;28;20027;-89
2021/11/04 02:20:20;;;;;;;2.47;1.60;;;;;;;;;;4960394;28;20066;-89
2021/11/04 02:22:55;;;;;;;3.15;1.60;;;;;;;;;;4982545;28;20065;-85
2021/11/04 02:25:24;;;;;;;2.60;1.70;;;;;;;;;;4988425;28;20112;-85
2021/11/04 02:28:02;;;;;;;2.40;1.67;;;;;;;;;;4970623;28;20054;-85
2021/11/04 02:30:30;;;;;;;2.83;1.83;;;;;;;;;;4973629;28;20124;-85
2021/11/04 02:32:57;;;;;;;3.15;1.77;;;;;;;;;;4975878;28;20061;-84
2021/11/04 02:35:24;;;;;;;2.58;1.60;;;;;;;;;;4998771;28;20046;-90
2021/11/04 02:37:51;;;;;;;2.05;1.52;;;;;;;;;;4960993;28;20045;-91
2021/11/04 02:40:18;;;;;;;5.38;1.77;;;;;;;;;;4993707;28;20061;-90
2021/11/04 02:42:44;;;;;;;2.88;1.73;;;;;;;;;;4979492;28;20108;-89
2021/11/04 02:45:13;;;;;;;2.38;1.55;;;;;;;;;;4981541;28;20494;-93
2021/11/04 02:47:40;;;;;;;2.78;1.80;;;;;;;;;;4973135;28;20096;-91
2021/11/04 02:50:09;;;;;;;2.95;1.77;;;;;;;;;;4965419;28;20023;-93
2021/11/04 02:52:36;;;;;;;2.38;1.80;;;;;;;;;;4974787;28;20033;-90
2021/11/04 02:55:05;;;;;;;2.28;1.55;;;;;;;;;;4975419;28;20504;-87
2021/11/04 02:57:32;;;;;;;2.35;1.60;;;;;;;;;;4978557;28;20026;-88
2021/11/04 02:59:58;;;;;;;2.47;1.75;;;;;;;;;;4975709;28;20054;-89
2021/11/04 03:02:25;;;;;;;2.10;1.55;;;;;;;;;;4979671;28;20505;-89
2021/11/04 03:04:51;;;;;;;2.05;1.50;;;;;;;;;;4971112;28;20029;-88
2021/11/04 03:07:18;;;;;;;2.53;1.80;;;;;;;;;;4982343;28;20053;-89
2021/11/04 03:09:44;;;;;;;2.70;1.63;;;;;;;;;;4977547;28;20058;-90
2021/11/04 03:12:11;;;;;;;2.83;1.63;;;;;;;;;;4957478;28;20565;-89
2021/11/04 03:14:37;;;;;;;3.25;1.80;;;;;;;;;;4995506;28;20065;-89
2021/11/04 03:17:04;;;;;;;2.58;1.48;;;;;;;;;;4980656;28;20026;-89
2021/11/04 03:19:31;;;;;;;2.78;1.63;;;;;;;;;;4995858;28;20037;-88
2021/11/04 03:21:59;;;;;;;2.67;1.63;;;;;;;;;;4977594;28;20056;-91
2021/11/04 03:24:26;;;;;;;3.60;1.63;;;;;;;;;;4980789;28;20026;-87
2021/11/04 03:26:59;;;;;;;3.17;1.67;;;;;;;;;;4983664;28;20080;-94
2021/11/04 03:29:27;;;;;;;2.45;1.70;;;;;;;;;;5023046;28;20030;-88
2021/11/04 03:31:57;;;;;;;2.28;1.70;;;;;;;;;;4992207;28;20033;-94
2021/11/04 03:34:27;;;;;;;2.40;1.80;;;;;;;;;;5001826;28;20053;-92
2021/11/04 03:36:55;;;;;;;2.90;1.45;;;;;;;;;;5001643;28;20556;-93
2021/11/04 03:39:23;;;;;;;2.75;1.80;;;;;;;;;;4991006;28;20046;-94
2021/11/04 03:41:55;;;;;;;3.00;1.67;;;;;;;;;;4972868;28;20089;-93
2021/11/04 03:44:23;;;;;;;2.45;1.80;;;;;;;;;;4983950;28;20042;-95
2021/11/04 03:46:55;;;;;;;2.88;1.60;;;;;;;;;;4988699;28;20049;-94
2021/11/04 03:49:23;;;;;;;2.45;1.80;;;;;;;;;;5007436;28;20033;-93
2021/11/04 03:51:55;;;;;;;2.53;1.63;;;;;;;;;;5000117;28;20057;-94
2021/11/04 03:54:22;;;;;;;2.45;1.63;;;;;;;;;;5000752;28;20109;-91
2021/11/04 03:56:49;;;;;;;2.83;1.70;;;;;;;;;;4995002;28;20042;-91
2021/11/04 03:59:16;;;;;;;2.90;1.60;;;;;;;;;;4979332;28;20520;-91
2021/11/04 04:01:42;;;;;;;3.15;1.70;;;;;;;;;;4993288;28;20022;-90
2021/11/04 04:04:09;;;;;;;2.88;1.80;;;;;;;;;;4977122;28;20030;-90
2021/11/04 04:06:36;;;;;;;2.45;1.85;;;;;;;;;;4962582;28;20362;-91
2021/11/04 04:09:03;;;;;;;2.80;1.70;;;;;;;;;;4975686;28;20053;-90
2021/11/04 04:11:30;;;;;;;2.65;1.70;;;;;;;;;;4983595;28;20034;-90
2021/11/04 04:13:56;;;;;;;2.20;1.65;;;;;;;;;;4993749;28;20030;-92
2021/11/04 04:16:23;;;;;;;2.90;1.80;;;;;;;;;;4979287;28;20044;-91
2021/11/04 04:18:49;;;;;;;2.65;1.90;;;;;;;;;;4979942;28;20030;-92
2021/11/04 04:21:16;;;;;;;3.10;1.83;;;;;;;;;;4981954;28;20029;-91
2021/11/04 04:23:43;;;;;;;2.13;1.75;;;;;;;;;;4980104;28;20030;-90
2021/11/04 04:26:09;;;;;;;2.70;1.80;;;;;;;;;;4981341;28;20038;-91
2021/11/04 04:28:36;;;;;;;2.90;1.52;;;;;;;;;;4996892;28;20033;-92
2021/11/04 04:31:02;;;;;;;3.80;1.80;;;;;;;;;;4980005;28;20053;-87
2021/11/04 04:33:29;;;;;;;2.72;1.90;;;;;;;;;;4992073;28;20029;-90
2021/11/04 04:35:56;;;;;;;2.70;1.70;;;;;;;;;;4978283;28;20062;-91
2021/11/04 04:38:22;;;;;;;2.90;1.70;;;;;;;;;;4978566;28;20031;-92
2021/11/04 04:40:49;;;;;;;2.97;1.90;;;;;;;;;;4996572;28;20038;-90
2021/11/04 04:43:18;;;;;;;2.30;1.73;;;;;;;;;;5002510;28;20494;-92
2021/11/04 04:45:45;;;;;;;3.10;1.88;;;;;;;;;;4964664;28;20034;-88
2021/11/04 04:48:12;;;;;;;2.88;2.10;;;;;;;;;;4958616;28;20034;-91
2021/11/04 04:50:39;;;;;;;2.45;1.80;;;;;;;;;;4992979;28;20096;-93
2021/11/04 04:53:06;;;;;;;2.85;1.80;;;;;;;;;;4979761;28;20022;-91
2021/11/04 04:55:33;;;;;;;2.95;1.90;;;;;;;;;;4977901;28;20042;-90
2021/11/04 04:57:59;;;;;;;2.20;1.80;;;;;;;;;;4967209;28;20025;-93
2021/11/04 05:00:27;;;;;;;2.35;1.60;;;;;;;;;;4990177;28;20509;-85
2021/11/04 05:02:53;;;;;;;2.75;1.95;;;;;;;;;;4976613;28;22836;-90
2021/11/04 05:05:20;;;;;;;2.67;1.90;;;;;;;;;;4985953;28;20473;-91
2021/11/04 05:07:46;;;;;;;3.80;1.85;;;;;;;;;;4964969;28;20038;-88
2021/11/04 05:10:13;;;;;;;2.67;1.73;;;;;;;;;;4971519;28;20136;-86
2021/11/04 05:12:41;;;;;;;2.30;1.63;;;;;;;;;;4983641;28;20057;-87
2021/11/04 05:15:07;;;;;;;2.10;1.42;;;;;;;;;;4968865;28;20081;-85
2021/11/04 05:17:37;;;;;;;2.42;1.67;;;;;;;;;;4966408;28;20546;-86
2021/11/04 05:20:04;;;;;;;3.90;1.80;;;;;;;;;;4969090;28;20419;-88
2021/11/04 05:22:31;;;;;;;2.72;1.88;;;;;;;;;;4972211;28;20136;-87
2021/11/04 05:24:57;;;;;;;2.33;1.73;;;;;;;;;;4971798;28;20084;-86
2021/11/04 05:27:25;;;;;;;2.97;2.00;;;;;;;;;;4973547;28;20542;-86
2021/11/04 05:29:52;;;;;;;2.40;1.63;;;;;;;;;;4974680;28;20054;-86
2021/11/04 05:32:18;;;;;;;3.05;1.80;;;;;;;;;;4968059;28;20501;-86
2021/11/04 05:34:45;;;;;;;2.35;1.77;;;;;;;;;;4973436;28;20116;-87
2021/11/04 05:37:12;;;;;;;2.58;1.55;;;;;;;;;;4972745;28;20057;-86
2021/11/04 05:39:39;;;;;;;2.50;1.50;;;;;;;;;;4971249;28;20100;-85
2021/11/04 05:42:06;;;;;;;2.42;1.63;;;;;;;;;;4973816;28;20057;-87
2021/11/04 05:44:34;;;;;;;3.10;1.70;;;;;;;;;;4971140;28;20058;-86
2021/11/04 05:47:00;;;;;;;2.28;1.63;;;;;;;;;;4964539;28;20038;-87
2021/11/04 05:49:26;;;;;;;2.40;1.75;;;;;;;;;;4972365;28;20057;-87
2021/11/04 05:51:53;;;;;;;1.98;1.50;;;;;;;;;;4974969;28;20111;-87
2021/11/04 05:54:20;;;;;;;2.03;1.48;;;;;;;;;;4971331;28;20113;-84
2021/11/04 05:56:46;;;;;;;2.38;1.70;;;;;;;;;;4982823;28;20033;-84
2021/11/04 05:59:13;;;;;;;1.92;1.45;;;;;;;;;;4974414;28;20046;-82
2021/11/04 06:01:39;;;;;;;2.88;1.55;;;;;;;;;;4977559;28;20034;-85
2021/11/04 06:04:05;;;;;;;2.53;1.60;;;;;;;;;;4972805;28;20073;-86
2021/11/04 06:06:32;;;;;;;2.22;1.52;;;;;;;;;;4973087;28;20060;-86
2021/11/04 06:08:58;;;;;;;2.03;1.60;;;;;;;;;;4969571;28;20040;-86
2021/11/04 06:11:25;;;;;;;3.13;1.60;;;;;;;;;;4972954;28;20049;-86
2021/11/04 06:13:51;;;;;;;2.75;1.67;;;;;;;;;;4966120;28;20030;-87
2021/11/04 06:16:18;;;;;;;3.30;1.50;;;;;;;;;;4971005;28;20505;-86
2021/11/04 06:18:44;;;;;;;3.40;1.50;;;;;;;;;;4973836;28;20053;-86
2021/11/04 06:21:14;;;;;;;2.63;1.70;;;;;;;;;;4966520;28;20058;-85
2021/11/04 06:23:41;;;;;;;2.20;1.45;;;;;;;;;;4971852;28;20066;-85
2021/11/04 06:26:08;;;;;;;2.50;1.50;;;;;;;;;;4988499;28;20045;-85
2021/11/04 06:28:34;;;;;;;2.78;1.60;;;;;;;;;;4970838;28;20065;-86
2021/11/04 06:31:01;;;;;;;2.60;1.80;;;;;;;;;;4971764;28;20026;-87
2021/11/04 06:33:27;;;;;;;2.60;1.40;;;;;;;;;;4971865;28;20122;-85
2021/11/04 06:35:57;;;;;;;2.28;1.45;;;;;;;;;;4960284;28;20136;-86
2021/11/04 06:38:23;;;;;;;2.28;1.38;;;;;;;;;;4962227;28;20058;-85
2021/11/04 06:40:50;;;;;;;1.77;1.38;;;;;;;;;;4968260;28;20062;-85
2021/11/04 06:43:18;;;;;;;2.70;1.40;;;;;;;;;;4976334;28;20434;-84
2021/11/04 06:45:49;;;;;;;1.92;1.20;;;;;;;;;;4990507;28;20493;-84
2021/11/04 06:48:18;;;;;;;1.98;1.45;;;;;;;;;;4973357;28;20410;-86
2021/11/04 06:50:45;;;;;;;2.67;1.52;;;;;;;;;;4971423;28;20405;-86
2021/11/04 06:53:12;;;;;;;3.60;1.52;;;;;;;;;;4974077;28;20100;-87
2021/11/04 06:55:40;;;;;;;2.45;1.50;;;;;;;;;;4973639;28;20984;-87
2021/11/04 06:58:13;;;;;;;2.45;1.38;;;;;;;;;;4975708;28;20157;-86
2021/11/04 07:00:40;;;;;;;2.28;1.30;;;;;;;;;;4968096;28;20070;-86
2021/11/04 07:03:24;;;;;;;3.22;1.42;;;;;;;;;;4972226;28;20057;-86
2021/11/04 07:06:00;;;;;;;2.03;1.45;;;;;;;;;;4971071;28;20062;-86
2021/11/04 07:08:27;;;;;;;2.88;1.40;;;;;;;;;;4973581;28;20061;-85
2021/11/04 07:10:58;;;;;;;3.10;1.50;;;;;;;;;;4971724;28;20485;-86
2021/11/04 07:13:29;;;;;;;3.92;2.50;;;;;;;;;;4968321;28;20077;-85
2021/11/04 07:15:56;;;;;;;2.40;1.58;;;;;;;;;;4971109;28;20442;-86
2021/11/04 07:18:23;;;;;;;1.98;1.40;;;;;;;;;;4964259;28;20493;-85
2021/11/04 07:20:53;;;;;;;1.90;1.40;;;;;;;;;;4975001;28;20065;-86
2021/11/04 07:23:22;;;;;;;2.08;1.23;;;;;;;;;;4992754;28;20052;-86
2021/11/04 07:25:49;;;;;;;2.42;1.60;;;;;;;;;;4970957;28;20378;-86
2021/11/04 07:28:19;;;;;;;1.90;1.38;;;;;;;;;;4973370;28;20072;-86
2021/11/04 07:30:46;;;;;;;1.60;1.30;;;;;;;;;;4970777;28;20116;-86
2021/11/04 07:33:17;;;;;;;1.73;1.30;;;;;;;;;;4990148;28;20065;-87
2021/11/04 07:35:44;;;;;;;2.58;1.50;;;;;;;;;;4966919;28;20072;-86
2021/11/04 07:38:12;;;;;;;5.25;1.40;;;;;;;;;;4975963;28;20559;-86
2021/11/04 07:40:39;;;;;;;2.80;1.40;;;;;;;;;;4965011;28;20120;-86
2021/11/04 07:43:06;;;;;;;1.90;1.30;;;;;;;;;;4978098;28;20157;-86
2021/11/04 07:45:33;;;;;;;1.92;1.17;;;;;;;;;;4976945;28;20049;-87
2021/11/04 07:48:03;;;;;;;1.83;1.20;;;;;;;;;;4977406;28;20028;-87
2021/11/04 07:50:30;;;;;;;1.90;1.33;;;;;;;;;;5002305;28;20155;-85
2021/11/04 07:52:57;;;;;;;2.38;1.20;;;;;;;;;;4977639;28;20869;-88
2021/11/04 07:55:24;;;;;;;2.97;1.27;;;;;;;;;;4974239;28;20049;-87
2021/11/04 07:57:50;;;;;;;2.20;1.35;;;;;;;;;;4970882;28;20354;-87
2021/11/04 08:00:18;;;;;;;1.90;1.30;;;;;;;;;;4972080;28;20125;-86
2021/11/04 08:02:45;;;;;;;1.65;1.30;;;;;;;;;;4972550;28;20389;-86
2021/11/04 08:05:13;;;;;;;2.22;1.25;;;;;;;;;;4968968;28;20030;-86
2021/11/04 08:07:40;;;;;;;2.30;1.65;;;;;;;;;;4975987;28;20041;-88
2021/11/04 08:10:08;;;;;;;1.90;1.13;;;;;;;;;;4972206;28;20805;-85
2021/11/04 08:12:34;;;;;;;2.05;1.30;;;;;;;;;;4985126;28;20034;-91
2021/11/04 08:15:01;;;;;;;2.47;1.10;;;;;;;;;;5005433;28;20630;-88
2021/11/04 08:17:28;;;;;;;2.13;1.20;;;;;;;;;;4974658;28;20030;-90
2021/11/04 08:19:54;;;;;;;1.70;1.20;;;;;;;;;;4979457;28;20497;-91
2021/11/04 08:22:22;;;;;;;2.42;1.13;;;;;;;;;;4961781;28;20082;-89
2021/11/04 08:24:49;;;;;;;2.17;1.30;;;;;;;;;;4959404;28;20038;-90
2021/11/04 08:27:16;;;;;;;2.67;1.60;;;;;;;;;;4973875;28;20474;-87
2021/11/04 08:29:42;;;;;;;2.83;1.10;;;;;;;;;;4973030;28;20038;-91
2021/11/04 08:32:11;;;;;;;1.95;1.23;;;;;;;;;;4972825;28;20038;-81
2021/11/04 08:34:37;;;;;;;1.85;1.30;;;;;;;;;;4975724;28;20057;-84
2021/11/04 08:37:04;;;;;;;2.17;1.40;;;;;;;;;;4973492;28;20157;-83
2021/11/04 08:39:31;;;;;;;3.72;1.50;;;;;;;;;;4971701;28;20074;-85
2021/11/04 08:41:57;;;;;;;2.95;1.38;;;;;;;;;;4976418;28;20087;-83
2021/11/04 08:44:24;;;;;;;1.80;1.20;;;;;;;;;;4990172;28;20057;-83
2021/11/04 08:46:51;;;;;;;3.08;1.40;;;;;;;;;;4971324;28;20116;-82
2021/11/04 08:49:17;;;;;;;3.58;1.27;;;;;;;;;;4989470;28;20084;-85
2021/11/04 08:51:44;;;;;;;1.83;1.35;;;;;;;;;;4993751;28;20054;-83
2021/11/04 08:54:10;;;;;;;2.20;1.25;;;;;;;;;;4966436;28;20116;-82
2021/11/04 08:56:38;;;;;;;3.78;1.55;;;;;;;;;;4988532;28;20064;-83
2021/11/04 08:59:05;;;;;;;3.10;1.77;;;;;;;;;;4973350;28;20065;-82
2021/11/04 09:01:31;;;;;;;3.30;1.33;;;;;;;;;;4968866;28;20058;-82
2021/11/04 09:03:58;;;;;;;1.70;1.15;;;;;;;;;;4974685;28;20080;-82
2021/11/04 09:06:24;;;;;;;3.33;1.40;;;;;;;;;;4965486;28;20061;-82
2021/11/04 09:08:51;;;;;;;2.53;1.45;;;;;;;;;;4981722;28;20124;-82
2021/11/04 09:11:17;;;;;;;2.30;1.40;;;;;;;;;;4990275;28;20050;-82
2021/11/04 09:13:44;;;;;;;3.15;1.60;;;;;;;;;;4970211;28;20049;-82
2021/11/04 09:16:10;;;;;;;3.22;1.40;;;;;;;;;;4972725;28;20042;-82
2021/11/04 09:18:37;;;;;;;3.72;1.58;;;;;;;;;;4988233;28;20056;-82
2021/11/04 09:21:04;;;;;;;4.70;1.75;;;;;;;;;;4973875;28;20602;-82
2021/11/04 09:23:30;;;;;;;2.72;1.55;;;;;;;;;;4988634;28;20062;-82
2021/11/04 09:25:57;;;;;;;2.70;1.55;;;;;;;;;;4971700;28;20050;-82
2021/11/04 09:28:24;;;;;;;2.10;1.42;;;;;;;;;;4983576;28;20065;-82
2021/11/04 09:30:50;;;;;;;2.60;1.52;;;;;;;;;;4968515;28;20050;-83
2021/11/04 09:33:16;;;;;;;3.10;1.95;;;;;;;;;;4987253;28;20054;-82
2021/11/04 09:35:43;;;;;;;4.20;1.90;;;;;;;;;;4966821;28;20062;-85
2021/11/04 09:38:09;;;;;;;2.70;1.42;;;;;;;;;;4972867;28;20389;-84
2021/11/04 09:40:36;;;;;;;5.03;1.70;;;;;;;;;;4972414;28;20114;-85
2021/11/04 09:43:03;;;;;;;2.97;1.58;;;;;;;;;;4970634;28;20073;-85
2021/11/04 09:45:29;;;;;;;3.67;1.80;;;;;;;;;;4988136;28;20074;-84
2021/11/04 09:47:56;;;;;;;3.78;1.50;;;;;;;;;;4973444;28;20167;-84
2021/11/04 09:50:23;;;;;;;3.10;1.67;;;;;;;;;;4969767;28;20047;-84
2021/11/04 09:52:55;;;;;;;3.20;1.92;;;;;;;;;;4973600;28;20053;-84
2021/11/04 09:55:23;;;;;;;3.58;1.80;;;;;;;;;;4982074;28;20116;-84
2021/11/04 09:57:50;;;;;;;2.63;1.60;;;;;;;;;;4978530;28;20049;-85
2021/11/04 10:00:17;;;;;;;2.47;1.23;;;;;;;;;;4970597;28;22188;-85
2021/11/04 10:02:45;;;;;;;5.10;1.80;;;;;;;;;;4968087;28;20077;-85
2021/11/04 10:05:16;;;;;;;4.35;1.65;;;;;;;;;;4957903;28;20038;-86
2021/11/04 10:07:47;;;;;;;2.35;1.60;;;;;;;;;;4969870;28;20057;-86
2021/11/04 10:10:14;;;;;;;;;;;;;;;;;;4972344;28;20026;-85
2021/11/04 10:12:57;;;;;;;4.30;1.83;;;;;;;;;;4972374;28;19921;-84
2021/11/04 10:15:23;;;;;;;2.80;1.70;;;;;;;;;;4986298;28;20508;-85
2021/11/04 10:17:50;;;;;;;4.05;1.73;;;;;;;;;;4969461;28;20112;-85
2021/11/04 10:20:18;;;;;;;3.83;1.50;;;;;;;;;;4966991;28;20497;-85
2021/11/04 10:22:45;;;;;;;2.70;1.80;;;;;;;;;;4970078;28;20124;-85
2021/11/04 10:25:22;;;;;;;4.40;1.30;;;;;;;;;;4972634;28;20048;-85
2021/11/04 10:27:49;;;;;;;3.28;1.42;;;;;;;;;;4987930;28;20557;-85
2021/11/04 10:30:36;;;;;;;4.47;1.48;;;;;;;;;;4969597;28;20057;-85
2021/11/04 10:33:22;;;;;;;2.35;1.48;;;;;;;;;;5001956;28;20501;-85
2021/11/04 10:36:05;;;;;;;2.50;1.50;;;;;;;;;;4967036;28;20089;-84
2021/11/04 10:38:35;;;;;;;2.42;1.60;;;;;;;;;;4968540;28;20085;-85
2021/11/04 10:41:02;;;;;;;3.50;1.30;;;;;;;;;;4964108;28;20081;-85
2021/11/04 10:43:29;;;;;;;4.30;1.50;;;;;;;;;;4969110;28;20070;-84
2021/11/04 10:45:59;;;;;;;2.40;1.60;;;;;;;;;;4970762;28;20113;-84
2021/11/04 10:48:26;;;;;;;2.73;1.70;;;;;;;;;;4966592;28;20080;-85
2021/11/04 10:50:52;;;;;;;2.92;1.67;;;;;;;;;;4974140;28;20551;-85
2021/11/04 10:53:20;;;;;;;3.65;1.80;;;;;;;;;;4970385;28;20159;-85
2021/11/04 10:56:12;;;;;;;3.67;1.45;;;;;;;;;;4986604;28;20062;-85
2021/11/04 10:58:38;;;;;;;2.33;1.37;;;;;;;;;;4970933;28;20089;-85
2021/11/04 11:01:05;;;;;;;3.40;1.50;;;;;;;;;;4976040;28;20085;-85
2021/11/04 11:03:33;;;;;;;2.38;1.48;;;;;;;;;;4989295;28;20119;-84
2021/11/04 11:06:06;;;;;;;2.47;1.60;;;;;;;;;;4969452;28;20549;-85
2021/11/04 11:08:33;;;;;;;2.83;1.42;;;;;;;;;;4975578;28;20065;-84
2021/11/04 11:10:59;;;;;;;2.50;1.55;;;;;;;;;;4975770;28;20045;-85
2021/11/04 11:13:26;;;;;;;2.97;1.40;;;;;;;;;;4988232;28;20053;-85
2021/11/04 11:15:56;;;;;;;2.53;1.50;;;;;;;;;;4967494;28;20395;-84
2021/11/04 11:18:24;;;;;;;2.88;1.27;;;;;;;;;;4978434;28;20065;-84
2021/11/04 11:20:51;;;;;;;3.08;1.42;;;;;;;;;;4984520;28;20063;-85
2021/11/04 11:23:19;;;;;;;2.97;1.35;;;;;;;;;;4975518;28;20104;-85
2021/11/04 11:25:53;;;;;;;2.13;1.38;;;;;;;;;;4972623;28;20697;-84
2021/11/04 11:28:20;;;;;;;3.45;1.40;;;;;;;;;;4972120;28;20263;-86
2021/11/04 11:31:05;;;;;;;1.80;1.25;;;;;;;;;;4993914;28;20409;-84
2021/11/04 11:33:32;;;;;;;3.70;1.30;;;;;;;;;;4999933;28;20441;-84
2021/11/04 11:36:10;;;;;;;1.90;1.30;;;;;;;;;;4969376;28;20050;-84
2021/11/04 11:38:55;;;;;;;2.13;1.33;;;;;;;;;;4990639;28;20026;-85
2021/11/04 11:41:22;;;;;;;4.22;1.60;;;;;;;;;;4990199;28;20042;-86
2021/11/04 11:43:56;;;;;;;3.65;1.52;;;;;;;;;;4965809;28;20758;-85
2021/11/04 11:46:22;;;;;;;2.47;1.25;;;;;;;;;;4973809;28;20057;-85
2021/11/04 11:49:24;;;;;;;3.42;1.40;;;;;;;;;;4990925;28;20127;-85
2021/11/04 11:51:54;;;;;;;2.80;1.20;;;;;;;;;;4925630;29;20086;-84
2021/11/04 11:54:22;;;;;;;1.80;1.17;;;;;;;;;;4962802;28;20030;-85
2021/11/04 11:57:07;;;;;;;2.10;1.30;;;;;;;;;;4990757;28;20165;-84
2021/11/04 11:59:47;;;;;;;2.45;1.17;;;;;;;;;;4975291;28;20451;-84
2021/11/04 12:02:32;;;;;;;2.33;1.15;;;;;;;;;;4985207;28;20481;-85
2021/11/04 12:05:28;;;;;;;2.80;1.30;;;;;;;;;;4968350;28;20060;-85
2021/11/04 12:07:56;;;;;;;1.80;1.35;;;;;;;;;;4982286;28;20113;-85
2021/11/04 12:10:31;;;;;;;2.45;1.30;;;;;;;;;;4974992;28;20547;-86
2021/11/04 12:12:59;;;;;;;2.38;1.38;;;;;;;;;;4977173;28;20144;-85
2021/11/04 12:15:26;;;;;;;2.70;1.30;;;;;;;;;;4977079;28;20093;-85
2021/11/04 12:18:11;;;;;;;4.13;1.45;;;;;;;;;;4972273;28;20046;-85
2021/11/04 12:20:38;;;;;;;3.45;1.55;;;;;;;;;;4976159;28;20124;-85
2021/11/04 12:23:04;;;;;;;2.13;1.35;;;;;;;;;;4975579;28;20034;-85
2021/11/04 12:25:32;;;;;;;2.45;1.40;;;;;;;;;;4973487;28;20076;-85
2021/11/04 12:27:59;;;;;;;2.70;1.23;;;;;;;;;;4993193;28;20038;-85
2021/11/04 12:30:28;;;;;;;2.42;1.45;;;;;;;;;;4974780;28;20069;-84
2021/11/04 12:33:08;;;;;;;2.95;1.30;;;;;;;;;;4976041;28;20097;-85
2021/11/04 12:35:42;;;;;;;2.57;1.43;;;;;;;;;;4991980;28;20525;-85
2021/11/04 12:38:09;;;;;;;2.42;1.20;;;;;;;;;;4984439;28;20468;-85
2021/11/04 12:40:36;;;;;;;2.47;1.40;;;;;;;;;;4989523;28;20057;-85
2021/11/04 12:43:09;;;;;;;2.35;1.30;;;;;;;;;;4978856;28;20377;-85
2021/11/04 12:45:36;;;;;;;1.83;1.20;;;;;;;;;;5005301;28;20145;-85
2021/11/04 12:48:03;;;;;;;2.00;1.40;;;;;;;;;;4983054;28;20085;-85
2021/11/04 12:50:30;;;;;;;2.00;1.30;;;;;;;;;;4975170;28;20092;-85
2021/11/04 12:53:04;;;;;;;2.20;1.50;;;;;;;;;;4989934;28;20038;-84
2021/11/04 12:55:30;;;;;;;3.05;1.42;;;;;;;;;;4988058;28;20042;-84
2021/11/04 12:58:02;;;;;;;2.85;1.27;;;;;;;;;;4971985;28;20034;-81
2021/11/04 13:00:28;;;;;;;;;;;;;;;;;;4973674;28;20065;-83
2021/11/04 13:02:54;;;;;;;6.05;1.48;;;;;;;;;;4963962;28;21522;-82
2021/11/04 13:05:22;;;;;;;2.75;1.55;;;;;;;;;;4973078;28;20037;-82
2021/11/04 13:07:49;;;;;;;2.05;1.25;;;;;;;;;;4968096;28;20026;-82
2021/11/04 13:10:20;;;;;;;2.05;1.33;;;;;;;;;;4971749;28;20099;-82
2021/11/04 13:12:48;;;;;;;2.28;1.33;;;;;;;;;;4984685;28;20030;-83
2021/11/04 13:15:21;;;;;;;2.67;1.35;;;;;;;;;;4974493;28;20041;-83
2021/11/04 13:17:51;;;;;;;2.28;1.50;;;;;;;;;;4979255;28;20030;-83
2021/11/04 13:20:34;;;;;;;2.03;1.50;;;;;;;;;;4992681;28;20107;-83
2021/11/04 13:23:03;;;;;;;1.70;1.25;;;;;;;;;;4997126;28;20044;-83
2021/11/04 13:25:59;;;;;;;2.20;1.40;;;;;;;;;;4981504;28;20104;-81
2021/11/04 13:28:35;;;;;;;1.85;1.30;;;;;;;;;;4977559;28;20041;-83
2021/11/04 13:31:20;;;;;;;2.50;1.35;;;;;;;;;;4999838;28;20033;-83
2021/11/04 13:33:48;;;;;;;4.53;1.40;;;;;;;;;;4987102;28;20080;-87
2021/11/04 13:36:18;;;;;;;2.40;1.33;;;;;;;;;;4974292;28;20034;-84
2021/11/04 13:38:51;;;;;;;2.78;1.33;;;;;;;;;;4988325;28;20528;-87
2021/11/04 13:41:25;;;;;;;2.03;1.30;;;;;;;;;;4984712;28;20046;-86
2021/11/04 13:43:53;;;;;;;1.83;1.30;;;;;;;;;;4956106;28;20460;-85
2021/11/04 13:46:21;;;;;;;2.20;1.33;;;;;;;;;;5006513;28;20030;-86
2021/11/04 13:48:52;;;;;;;2.33;1.52;;;;;;;;;;4970927;28;20038;-80
2021/11/04 13:51:36;;;;;;;3.60;1.33;;;;;;;;;;4991290;28;20073;-89
2021/11/04 13:54:14;;;;;;;3.35;1.40;;;;;;;;;;4975954;28;20430;-87
2021/11/04 13:56:42;;;;;;;2.10;1.23;;;;;;;;;;5011132;28;20255;-88
2021/11/04 13:59:10;;;;;;;4.25;1.48;;;;;;;;;;4983638;28;20052;-90
2021/11/04 14:01:38;;;;;;;2.15;1.33;;;;;;;;;;4970415;28;20042;-89
2021/11/04 14:04:08;;;;;;;4.20;1.60;;;;;;;;;;4974228;28;20104;-89
2021/11/04 14:06:45;;;;;;;2.33;1.55;;;;;;;;;;4997033;28;20132;-88
2021/11/04 14:09:33;;;;;;;2.45;1.52;;;;;;;;;;4977100;28;20030;-86
2021/11/04 14:12:05;;;;;;;3.83;1.67;;;;;;;;;;4997107;28;20105;-85
2021/11/04 14:14:41;;;;;;;2.20;1.50;;;;;;;;;;4960413;28;20096;-84
2021/11/04 14:17:07;;;;;;;2.75;1.50;;;;;;;;;;4966466;28;20092;-84
2021/11/04 14:19:34;;;;;;;3.60;1.98;;;;;;;;;;4977298;28;20034;-84
2021/11/04 14:22:00;;;;;;;2.95;1.58;;;;;;;;;;4987810;28;20050;-85
2021/11/04 14:24:29;;;;;;;3.42;1.75;;;;;;;;;;4980802;28;20037;-84
2021/11/04 14:26:55;;;;;;;3.05;1.75;;;;;;;;;;4980519;28;20030;-85
2021/11/04 14:29:22;;;;;;;2.55;1.40;;;;;;;;;;4982581;28;20061;-84
2021/11/04 14:31:52;;;;;;;2.22;1.38;;;;;;;;;;5017086;28;20041;-85
2021/11/04 14:34:20;;;;;;;1.90;1.40;;;;;;;;;;4998454;28;20448;-84
2021/11/04 14:36:46;;;;;;;3.03;1.67;;;;;;;;;;4994110;28;20042;-84
2021/11/04 14:39:12;;;;;;;2.63;1.42;;;;;;;;;;5008694;28;20061;-84
2021/11/04 14:41:39;;;;;;;2.78;1.45;;;;;;;;;;4977589;28;20081;-84
2021/11/04 14:44:06;;;;;;;2.65;1.42;;;;;;;;;;5011942;28;20440;-83
2021/11/04 14:46:32;;;;;;;3.03;1.40;;;;;;;;;;5002878;28;20122;-84
2021/11/04 14:48:59;;;;;;;3.17;1.30;;;;;;;;;;5006052;28;20062;-84
2021/11/04 14:51:25;;;;;;;2.15;1.20;;;;;;;;;;4991452;28;20140;-85